Tiempo atmosférico en la estación meteorológica de Quinto, Zaragoza (205 m.)



Fecha
DESCASC
Temp. máxima en grados centígrados (hora)
DESCASC
Temp. mínima en grados centígrados (hora)
DESCASC
Temp. media en grados centígrados
DESCASC
Racha de viento máxima en m/sg (hora)
DESCASC
Velocidad máxima media en intervalos de 10 minutos(hora)
DESCASC
Precipitaciones diarias en mm
DESCASC
Precipitaciones de 00:00 a 06:00 en mm
DESCASC
Precipitaciones de 06:00 a 12:00 en mm
DESCASC
Precipitaciones de 12:00 a 18:00 en mm
DESCASC
Precipitaciones de 18:00 a 24:00 en mm
DESCASC
25-02-2021 16.4 (17:10) 4.6 (02:50) 10.5 4.17 (11:40) 3.06 (16:10) 0 0 0 0 0
24-02-2021 18.1 (16:10) 4.5 (07:20) 11.3 8.33 (15:00) 5 (17:50) 0 0 0 0 0
23-02-2021 17.4 (16:00) 5.2 (08:10) 11.3 6.11 (16:30) 3.61 (16:10) 0 0 0 0 0
22-02-2021 12.3 (02:30) 7.6 (08:50) 10 14.44 (11:00) 7.22 (11:00) 14.6 14.6 0 0 0
21-02-2021 15.5 (15:40) 8.6 (00:00) 12.1 14.44 (12:40) 8.89 (15:40) 0 0 0 0 0
20-02-2021 19.4 (15:30) 3.5 (00:00) 11.4 9.72 (17:30) 5.56 (18:30) 0 0 0 0 0
19-02-2021 20.2 (15:40) 1.9 (00:00) 11.1 7.22 (15:30) 4.17 (15:40) 0 0 0 0 0
18-02-2021 17.1 (17:10) 3.7 (00:00) 10.4 5.28 (13:10) 3.33 (13:10) 0 0 0 0 0
17-02-2021 17.6 (17:20) 5.8 (00:00) 11.7 3.61 (20:50) 1.67 (00:20) 0 0 0 0 0
16-02-2021 16.4 (16:00) 6.7 (00:00) 11.5 5.56 (13:00) 3.61 (12:40) 0 0 0 0 0
15-02-2021 15.4 (16:20) 6.4 (00:00) 10.9 6.67 (17:50) 3.89 (17:40) 0 0 0 0 0
14-02-2021 15 (13:20) 0.8 (00:00) 7.9 11.39 (17:40) 6.39 (15:00) 0 0 0 0 0
13-02-2021 17 (14:00) 8.6 (00:00) 12.8 19.17 (01:00) 10.56 (00:30) 0 0 0 0 0
12-02-2021 14.6 (17:10) 6.6 (00:00) 10.6 16.67 (23:40) 10.56 (22:30) 3.2 0 2.2 1 0
11-02-2021 19 (16:10) 0.6 (00:00) 9.8 6.67 (18:20) 4.17 (18:10) 0 0 0 0 0
10-02-2021 15 (16:40) 4.7 (00:00) 9.8 14.44 (12:20) 9.17 (12:30) 3.2 1.6 1.4 0.2 0
09-02-2021 12.7 (15:00) 5.1 (00:00) 8.9 10.28 (17:50) 5.28 (17:50) 0.4 0 0 0.2 0.2
08-02-2021 15.7 (14:50) 4.7 (00:00) 10.2 17.5 (15:20) 11.94 (15:20) 1.6 0 1.4 0.2 0
07-02-2021 12.2 (16:30) 6.2 (00:00) 9.2 18.33 (14:00) 11.11 (13:40) 0 0 0 0 0
06-02-2021 18.4 (14:50) 8.4 (00:00) 13.4 15.83 (23:59) 10.28 (16:30) 0.4 0 0.2 0.2 0
05-02-2021 17.3 (14:30) 6.9 (00:00) 12.1 9.44 (14:40) 5.56 (15:30) 0 0 0 0 0
04-02-2021 19.1 (15:10) 7.7 (00:00) 13.4 6.39 (16:20) 3.61 (16:50) 0 0 0 0 0
03-02-2021 19.8 (14:00) 5.3 (00:00) 12.5 5.56 (00:10) 4.44 (00:10) 0 0 0 0 0
02-02-2021 20.8 (14:40) 5.7 (08:50) 13.2 12.5 (12:50) 8.33 (12:30) 0 0 0 0 0
01-02-2021 17.9 (15:50) 9.7 (00:00) 13.8 17.22 (00:10) 11.11 (00:10) 0 0 0 0 0
31-01-2021 18.2 (16:10) 5.7 (00:00) 12 16.67 (23:59) 10.28 (23:59) 0 0 0 0 0
30-01-2021 17.1 (14:50) 6 (00:00) 11.6 21.39 (15:50) 13.61 (13:40) 0.4 0 0 0 0.4

Gráficas

Temp. máximas Temp. mínimas Temp. medias Precipitaciones Rachas de viento máximas Velocidades máximas media en intervalos de 10 minutos

Datos horarios

Fecha y hora oficial Temperatura (ºC) Velocidad del viento (km/h) Dirección del viento Racha (km/h) Dirección de racha Precipitación (mm) Presión (hPa) Tendencia (hPa) Humedad (%)
2021-02-28 23:00:00 8.7 5 Este 17 Este 0 -- -- 81
2021-02-28 22:00:00 9.4 5 Este 20 Sudeste 0 -- -- 77
2021-02-28 21:00:00 10.6 13 Sudeste 34 Este 0 -- -- 72
2021-02-28 20:00:00 11.3 22 Este 39 Este 0 -- -- 68
2021-02-28 19:00:00 12.2 19 Este 39 Este 0 -- -- 66
2021-02-28 18:00:00 13.9 26 Este 43 Este 0 -- -- 61
2021-02-28 17:00:00 14.9 22 Este 42 Este 0 -- -- 57
2021-02-28 16:00:00 15.3 22 Este 42 Sudeste 0 -- -- 57
2021-02-28 15:00:00 15.6 24 Sudeste 44 Este 0 -- -- 57
2021-02-28 14:00:00 13.7 3 Nordeste 10 Sudeste 0 -- -- 67
2021-02-28 13:00:00 11.9 3 Sur 7 Sudeste 0 -- -- 68
2021-02-28 12:00:00 10.6 3 Noroeste 7 Este 0 -- -- 69
2021-02-28 11:00:00 9.6 3 Este 6 Este 0 -- -- 73
2021-02-28 10:00:00 8.4 3 Nordeste 6 Este 0 -- -- 80
2021-02-28 09:00:00 7 4 Este 9 Este 0 -- -- 84
2021-02-28 08:00:00 6.6 4 Este 8 Sudeste 0 -- -- 85
2021-02-28 07:00:00 6.7 0 Calma 9 Este 0 -- -- 85
2021-02-28 06:00:00 6.9 2 Este 8 Sur 0 -- -- 84
2021-02-28 05:00:00 6.5 4 Sur 7 Sudoeste 0 -- -- 85
2021-02-28 04:00:00 5.8 4 Sur 7 Sudoeste 0 -- -- 85
2021-02-28 03:00:00 6.3 2 Sudoeste 6 Sudeste 0 -- -- 82
2021-02-28 02:00:00 7.4 2 Noroeste 10 Oeste 0 -- -- 80
2021-02-28 01:00:00 7.2 9 Oeste 11 Oeste 0 -- -- 83
2021-02-28 00:00:00 7 7 Oeste 15 Sudoeste 0 -- -- 89
2021-02-27 23:00:00 6.8 10 Sudoeste 13 Sudoeste 0 -- -- 84
2021-02-27 22:00:00 9.1 5 Norte 10 Oeste 0 -- -- 73
2021-02-27 21:00:00 10.2 3 Noroeste 17 Oeste 0 -- -- 65
2021-02-27 20:00:00 11 12 Sudoeste 15 Sudoeste 0 -- -- 63
2021-02-27 19:00:00 14.4 8 Oeste 17 Oeste 0 -- -- 50
2021-02-27 18:00:00 16.7 10 Oeste 19 Oeste 0 -- -- 48
2021-02-27 17:00:00 17.1 11 Noroeste 20 Noroeste 0 -- -- 50
2021-02-27 16:00:00 16.6 10 Noroeste 21 Noroeste 0 -- -- 55
2021-02-27 15:00:00 16.3 10 Oeste 19 Noroeste 0 -- -- 57
2021-02-27 14:00:00 14.4 11 Noroeste 24 Noroeste 0 -- -- 64
2021-02-27 13:00:00 13.9 13 Noroeste 22 Noroeste 0 -- -- 68
2021-02-27 12:00:00 12.4 5 Noroeste 14 Noroeste 0 -- -- 74
2021-02-27 11:00:00 10.7 3 Norte 9 Oeste 0 -- -- 81
2021-02-27 10:00:00 7.1 6 Este 11 Este 0 -- -- 98
2021-02-27 09:00:00 5.9 4 Sudeste 11 Sudeste 0 -- -- 98
2021-02-27 08:00:00 3.3 6 Este 11 Este 0 -- -- 97
2021-02-27 07:00:00 2.9 3 Este 5 Sudeste 0 -- -- 96
2021-02-27 06:00:00 3.5 3 Sudeste 7 Este 0 -- -- 96
2021-02-27 05:00:00 4.2 4 Este 6 Este 0 -- -- 96
2021-02-27 04:00:00 4.5 0 Calma 7 Sur 0 -- -- 95
2021-02-27 03:00:00 4.8 5 Sur 9 Sur 0 -- -- 95
2021-02-27 02:00:00 5.4 3 Sudoeste 6 Sudoeste 0 -- -- 93
2021-02-27 01:00:00 6.7 0 Calma 3 Sudoeste 0 -- -- 92
2021-02-27 00:00:00 7.4 4 Sudoeste 6 Sudoeste 0 -- -- 91
2021-02-26 23:00:00 9.2 2 Sudeste 8 Este 0 -- -- 90
2021-02-26 22:00:00 10 0 Calma 4 Noroeste 0 -- -- 88
2021-02-26 21:00:00 11.5 3 Sudeste 13 Sudeste 0 -- -- 85
2021-02-26 20:00:00 12.6 8 Sudeste 16 Sudeste 0 -- -- 81
2021-02-26 19:00:00 14.4 10 Sudeste 16 Sudeste 0 -- -- 75
2021-02-26 18:00:00 16.5 3 Este 8 Este 0 -- -- 66
2021-02-26 17:00:00 16.9 3 Este 8 Este 0 -- -- 66
2021-02-26 16:00:00 16.6 4 Sur 10 Nordeste 0 -- -- 65
2021-02-26 15:00:00 16 5 Norte 11 Noroeste 0 -- -- 68
2021-02-26 14:00:00 15 6 Norte 14 Norte 0 -- -- 73
2021-02-26 13:00:00 13.7 9 Norte 15 Noroeste 0 -- -- 75
2021-02-26 12:00:00 12.4 5 Noroeste 11 Noroeste 0 -- -- 80
2021-02-26 11:00:00 11.1 3 Noroeste 7 Noroeste 0 -- -- 85
2021-02-26 10:00:00 9.3 3 Norte 5 Norte 0 -- -- 90
2021-02-26 09:00:00 8 3 Oeste 5 Oeste 0 -- -- 95
2021-02-26 08:00:00 7.3 2 Oeste 4 Oeste 0 -- -- 95
2021-02-26 07:00:00 7.3 2 Norte 3 Norte 0 -- -- 95
2021-02-26 06:00:00 7.2 0 Calma 3 Sur 0 -- -- 96
2021-02-26 05:00:00 6.8 0 Calma 4 Este 0 -- -- 95
2021-02-26 04:00:00 6.3 0 Calma 6 Oeste 0 -- -- 95
2021-02-26 03:00:00 5.7 5 Sudoeste 9 Sudoeste 0 -- -- 93
2021-02-26 02:00:00 6.1 2 Sudoeste 6 Sudoeste 0 -- -- 92
2021-02-26 01:00:00 6.9 4 Oeste 6 Sudoeste 0 -- -- 92
2021-02-26 00:00:00 7.9 2 Sudoeste 6 Sudeste 0 -- -- 90
2021-02-25 23:00:00 8.3 7 Sudoeste 9 Sudoeste 0 -- -- 89
2021-02-25 22:00:00 9.4 4 Sudoeste 9 Sudoeste 0 -- -- 86
2021-02-25 21:00:00 10.4 10 Sudoeste 13 Sudoeste 0 -- -- 84
2021-02-25 20:00:00 11.3 7 Sudoeste 13 Sudoeste 0 -- -- 82
2021-02-25 19:00:00 13.1 10 Sudoeste 14 Sudoeste 0 -- -- 76
2021-02-25 18:00:00 15.4 7 Sudoeste 13 Oeste 0 -- -- 68
2021-02-25 17:00:00 16.3 10 Sudoeste 15 Oeste 0 -- -- 64
2021-02-25 16:00:00 16 10 Sudoeste 15 Sudoeste 0 -- -- 66
2021-02-25 15:00:00 15.3 7 Sudoeste 15 Sudoeste 0 -- -- 68
2021-02-25 14:00:00 14.7 4 Sur 10 Este 0 -- -- 71
2021-02-25 13:00:00 13.4 4 Sur 15 Sudeste 0 -- -- 74
2021-02-25 12:00:00 12.2 6 Este 15 Este 0 -- -- 77
2021-02-25 11:00:00 9.9 7 Sur 11 Sudeste 0 -- -- 88
2021-02-25 10:00:00 9.2 5 Sudeste 13 Sudeste 0 -- -- 91
2021-02-25 09:00:00 8.3 5 Sudeste 9 Sudeste 0 -- -- 93
2021-02-25 08:00:00 7.7 6 Sudeste 13 Sudeste 0 -- -- 91
2021-02-25 07:00:00 7.7 10 Sudeste 14 Sudeste 0 -- -- 90
2021-02-25 06:00:00 7.8 7 Sudeste 12 Sudeste 0 -- -- 91
2021-02-25 05:00:00 7.6 6 Sudeste 10 Este 0 -- -- 95
2021-02-25 04:00:00 6.8 4 Sur 10 Sudoeste 0 -- -- 95
2021-02-25 03:00:00 4.8 7 Sudoeste 11 Sudoeste 0 -- -- 93
2021-02-25 02:00:00 5.5 5 Sudoeste 9 Sudoeste 0 -- -- 91
2021-02-25 01:00:00 7.3 5 Nordeste 10 Nordeste 0 -- -- 91
2021-02-25 00:00:00 8.9 3 Este 9 Este 0 -- -- 87
2021-02-24 23:00:00 9.4 3 Norte 18 Este 0 -- -- 85
2021-02-24 22:00:00 11 10 Este 25 Este 0 -- -- 81
2021-02-24 21:00:00 12.2 14 Este 27 Este 0 -- -- 74
2021-02-24 20:00:00 13.5 13 Este 23 Este 0 -- -- 71
2021-02-24 19:00:00 14.9 11 Este 27 Este 0 -- -- 66
2021-02-24 18:00:00 16.7 16 Este 27 Este 0 -- -- 61
2021-02-24 17:00:00 18 13 Este 28 Este 0 -- -- 64
2021-02-24 16:00:00 18 14 Este 26 Este 0 -- -- 64
2021-02-24 15:00:00 17.5 12 Este 30 Este 0 -- -- 66
2021-02-24 14:00:00 17.6 13 Este 26 Este 0 -- -- 66
2021-02-24 13:00:00 15.7 8 Nordeste 19 Este 0 -- -- 74
2021-02-24 12:00:00 13.1 4 Nordeste 6 Norte 0 -- -- 86
2021-02-24 11:00:00 10.1 4 Norte 6 Norte 0 -- -- 97
2021-02-24 10:00:00 7.8 2 Sudeste 6 Este 0 -- -- 97
2021-02-24 09:00:00 6 2 Sudoeste 8 Sudoeste 0 -- -- 97
2021-02-24 08:00:00 4.6 4 Sur 12 Sudoeste 0 -- -- 96
2021-02-24 07:00:00 4.7 4 Sudoeste 12 Sudoeste 0 -- -- 95
2021-02-24 06:00:00 5.3 9 Sudoeste 15 Sudoeste 0 -- -- 95
2021-02-24 05:00:00 5.4 6 Sur 11 Sudoeste 0 -- -- 95
2021-02-24 04:00:00 5.2 10 Sudoeste 13 Sudoeste 0 -- -- 94
2021-02-24 03:00:00 5.8 8 Sudoeste 12 Sudoeste 0 -- -- 93
2021-02-24 02:00:00 6.4 3 Sudoeste 9 Sudoeste 0 -- -- 93
2021-02-24 01:00:00 7.1 0 Calma 9 Sur 0 -- -- 93
2021-02-24 00:00:00 7.4 3 Sur 12 Sudoeste 0 -- -- 90
2021-02-23 23:00:00 8.7 7 Sudoeste 9 Sudoeste 0 -- -- 86
2021-02-23 22:00:00 10.7 2 Sudeste 8 Este 0 -- -- 83
2021-02-23 21:00:00 11.7 2 Nordeste 9 Sudeste 0 -- -- 80
2021-02-23 20:00:00 13 3 Nordeste 13 Sudeste 0 -- -- 74
2021-02-23 19:00:00 14.6 2 Sudeste 11 Sudeste 0 -- -- 69
2021-02-23 18:00:00 16.5 8 Sudeste 21 Este 0 -- -- 61
2021-02-23 17:00:00 17.3 9 Este 22 Este 0 -- -- 58
2021-02-23 16:00:00 17.4 12 Este 20 Este 0 -- -- 58
2021-02-23 15:00:00 16.8 5 Sudeste 14 Este 0 -- -- 60
2021-02-23 14:00:00 15.7 3 Este 13 Este 0 -- -- 63
2021-02-23 13:00:00 14.4 5 Este 14 Este 0 -- -- 61
2021-02-23 12:00:00 13.2 8 Este 14 Este 0 -- -- 69
2021-02-23 11:00:00 12.2 5 Sudeste 12 Sudoeste 0 -- -- 74
2021-02-23 10:00:00 9.6 12 Sudoeste 16 Sudoeste 0 -- -- 85
2021-02-23 09:00:00 6.7 8 Sudoeste 13 Sudoeste 0 -- -- 95
2021-02-23 08:00:00 5.5 6 Sur 9 Sur 0 -- -- 93
2021-02-23 07:00:00 7.5 3 Este 6 Este 0 -- -- 92
2021-02-23 06:00:00 8 3 Este 6 Este 0 -- -- 92
2021-02-23 05:00:00 7.9 2 Sudoeste 6 Sur 0 -- -- 91
2021-02-23 04:00:00 7.7 4 Sudoeste 11 Sudoeste 0 -- -- 92
2021-02-23 03:00:00 7.7 3 Sur 8 Sudoeste 0 -- -- 91
2021-02-23 02:00:00 7.9 6 Sudoeste 8 Sudoeste 0 -- -- 91
2021-02-23 01:00:00 8 5 Sur 8 Sur 0 -- -- 90
2021-02-23 00:00:00 8 4 Sudoeste 8 Sudoeste 0 -- -- 89
2021-02-22 23:00:00 7.7 3 Sudoeste 11 Sudoeste 0 -- -- 89
2021-02-22 22:00:00 8.3 4 Sudoeste 12 Sudoeste 0 -- -- 87
2021-02-22 21:00:00 8.8 6 Oeste 12 Noroeste 0 -- -- 85
2021-02-22 20:00:00 8.6 5 Oeste 10 Oeste 0 -- -- 84
2021-02-22 19:00:00 9.4 8 Oeste 18 Oeste 0 -- -- 80
2021-02-22 18:00:00 9.9 11 Oeste 24 Oeste 0 -- -- 78
2021-02-22 17:00:00 10.1 14 Noroeste 29 Oeste 0 -- -- 74
2021-02-22 16:00:00 10.1 16 Oeste 27 Noroeste 0 -- -- 74
2021-02-22 15:00:00 9.4 16 Noroeste 33 Oeste 0 -- -- 77
2021-02-22 14:00:00 9.2 21 Noroeste 36 Noroeste 0 -- -- 77
2021-02-22 13:00:00 8.8 25 Noroeste 42 Noroeste 0 -- -- 79
2021-02-22 12:00:00 8.3 21 Noroeste 41 Oeste 0 -- -- 81
2021-02-22 11:00:00 7.9 26 Oeste 52 Oeste 0 -- -- 81
2021-02-22 10:00:00 7.9 21 Noroeste 42 Oeste 0 -- -- 83
2021-02-22 09:00:00 7.6 18 Oeste 42 Oeste 0 -- -- 84
2021-02-22 08:00:00 8.7 13 Sudoeste 26 Sudoeste 0 -- -- 82
2021-02-22 07:00:00 9.6 17 Sur 26 Sur 0 -- -- 89
2021-02-22 06:00:00 10.5 11 Sudeste 22 Oeste 0.2 -- -- 93
2021-02-22 05:00:00 11 15 Oeste 26 Sudoeste 13.8 -- -- 92
2021-02-22 04:00:00 12 6 Sur 19 Sudeste 0.6 -- -- 85
2021-02-22 03:00:00 12.2 10 Sudeste 17 Sudeste 0 -- -- 80
2021-02-22 02:00:00 12.1 7 Sur 20 Este 0 -- -- 79
2021-02-22 01:00:00 11.9 6 Este 12 Este 0 -- -- 79
2021-02-22 00:00:00 12 8 Este 17 Este 0 -- -- 78
2021-02-21 23:00:00 12 6 Este 13 Nordeste 0 -- -- 78
2021-02-21 22:00:00 12.5 4 Sudeste 16 Este 0 -- -- 76
2021-02-21 21:00:00 13.1 5 Nordeste 25 Este 0 -- -- 74
2021-02-21 20:00:00 13.7 14 Este 25 Este 0 -- -- 72
2021-02-21 19:00:00 13.9 15 Este 35 Este 0 -- -- 70
2021-02-21 18:00:00 14.4 24 Este 46 Este 0 -- -- 68
2021-02-21 17:00:00 15 27 Este 48 Este 0 -- -- 66
2021-02-21 16:00:00 15.4 30 Este 51 Este 0 -- -- 64
2021-02-21 15:00:00 15.1 25 Este 47 Este 0 -- -- 66
2021-02-21 14:00:00 14.6 24 Este 45 Este 0 -- -- 68
2021-02-21 13:00:00 14.1 27 Este 52 Este 0 -- -- 69
2021-02-21 12:00:00 14 23 Este 43 Este 0 -- -- 69
2021-02-21 11:00:00 11.8 14 Este 32 Este 0 -- -- 76
2021-02-21 10:00:00 10.1 10 Este 31 Este 0 -- -- 81
2021-02-21 09:00:00 9.6 14 Este 28 Este 0 -- -- 82
2021-02-21 08:00:00 8.9 12 Este 27 Este 0 -- -- 85
2021-02-21 07:00:00 8.7 13 Este 26 Este 0 -- -- 86
2021-02-21 06:00:00 9.3 17 Este 31 Este 0 -- -- 84
2021-02-21 05:00:00 9.2 18 Este 33 Este 0 -- -- 84
2021-02-21 04:00:00 9.3 17 Este 33 Este 0 -- -- 82
2021-02-21 03:00:00 9.4 17 Este 35 Este 0 -- -- 81
2021-02-21 02:00:00 9.6 16 Este 35 Este 0 -- -- 81
2021-02-21 01:00:00 9.4 9 Este 24 Este 0 -- -- 80
2021-02-21 00:00:00 9.7 10 Este 22 Este 0 -- -- 79
2021-02-20 23:00:00 10.1 8 Este 24 Nordeste 0 -- -- 77
2021-02-20 22:00:00 10.6 10 Este 24 Este 0 -- -- 74
2021-02-20 21:00:00 11.3 12 Este 30 Este 0 -- -- 69
2021-02-20 20:00:00 12.4 11 Este 27 Este 0 -- -- 64
2021-02-20 19:00:00 13.9 18 Este 32 Sudeste 0 -- -- 61
2021-02-20 18:00:00 16.6 14 Este 35 Este 0 -- -- 53
2021-02-20 17:00:00 19.2 17 Este 32 Este 0 -- -- 48
2021-02-20 16:00:00 19.4 17 Este 34 Este 0 -- -- 49
2021-02-20 15:00:00 19.2 18 Este 34 Este 0 -- -- 49
2021-02-20 14:00:00 18.4 17 Sudeste 28 Este 0 -- -- 53
2021-02-20 13:00:00 15.2 10 Sudeste 15 Sudeste 0 -- -- 70
2021-02-20 12:00:00 12.8 7 Sudeste 17 Sudeste 0 -- -- 80
2021-02-20 11:00:00 9.9 10 Sudeste 18 Este 0 -- -- 97
2021-02-20 10:00:00 7 3 Este 10 Este 0 -- -- 97
2021-02-20 09:00:00 5.9 6 Sudeste 11 Sudeste 0 -- -- 97
2021-02-20 08:00:00 4.2 6 Sudeste 9 Sudeste 0 -- -- 97
2021-02-20 07:00:00 4.4 6 Sur 12 Sudoeste 0 -- -- 96
2021-02-20 06:00:00 3.6 9 Sur 14 Sur 0 -- -- 94
2021-02-20 05:00:00 4.2 8 Sur 14 Sur 0 -- -- 94
2021-02-20 04:00:00 4 7 Sur 10 Sur 0 -- -- 92
2021-02-20 03:00:00 4.5 6 Sur 12 Sudoeste 0 -- -- 92
2021-02-20 02:00:00 5.4 5 Sudeste 9 Sudeste 0 -- -- 91
2021-02-20 01:00:00 5 3 Sur 6 Sudeste 0 -- -- 88
2021-02-20 00:00:00 6.3 4 Sur 8 Sudeste 0 -- -- 83
2021-02-19 23:00:00 8.3 6 Sudeste 10 Sudeste 0 -- -- 78
2021-02-19 22:00:00 10 7 Sudeste 11 Sudeste 0 -- -- 73
2021-02-19 21:00:00 10.8 3 Este 9 Este 0 -- -- 72
2021-02-19 20:00:00 13.1 4 Noroeste 9 Este 0 -- -- 65
2021-02-19 19:00:00 16.5 3 Nordeste 12 Este 0 -- -- 55
2021-02-19 18:00:00 18.8 5 Este 23 Este 0 -- -- 49
2021-02-19 17:00:00 20 13 Este 25 Este 0 -- -- 40
2021-02-19 16:00:00 20.2 13 Este 26 Este 0 -- -- 46
2021-02-19 15:00:00 19.9 12 Este 22 Este 0 -- -- 45
2021-02-19 14:00:00 18.2 8 Sudeste 15 Este 0 -- -- 58
2021-02-19 13:00:00 15.4 5 Sudeste 10 Sur 0 -- -- 68
2021-02-19 12:00:00 12.4 5 Sudeste 8 Sudeste 0 -- -- 76
2021-02-19 11:00:00 8.3 4 Este 7 Este 0 -- -- 97
2021-02-19 10:00:00 5.9 3 Sudeste 5 Sur 0 -- -- 99
2021-02-19 09:00:00 3.1 2 Este -- -- 0 -- -- 97
2021-02-19 08:00:00 2.7 3 Sudoeste 5 Este 0 -- -- 97
2021-02-19 07:00:00 2 0 Calma 7 Sudoeste 0 -- -- 96
2021-02-19 06:00:00 2.6 4 Sur 9 Sudoeste 0 -- -- 95
2021-02-19 05:00:00 2.8 2 Este 11 Oeste 0 -- -- 95
2021-02-19 04:00:00 3.4 3 Sudeste 9 Sudoeste 0 -- -- 94
2021-02-19 03:00:00 4 3 Este 5 Sur 0 -- -- 94
2021-02-19 02:00:00 4.4 0 Calma 6 Sudoeste 0 -- -- 93
2021-02-19 01:00:00 5.6 3 Oeste 5 Este 0 -- -- 92
2021-02-19 00:00:00 6.5 2 Este 8 Este 0 -- -- 91
2021-02-18 23:00:00 7.9 2 Este 9 Sudeste 0 -- -- 90
2021-02-18 22:00:00 9 3 Sur 9 Sudoeste 0 -- -- 86
2021-02-18 21:00:00 9.8 5 Sudoeste 10 Sudoeste 0 -- -- 86
2021-02-18 20:00:00 11.1 6 Oeste 12 Sudoeste 0 -- -- 82
2021-02-18 19:00:00 14.6 9 Sudeste 15 Sudeste 0 -- -- 74
2021-02-18 18:00:00 16.7 9 Sudeste 15 Sudeste 0 -- -- 65
2021-02-18 17:00:00 17 7 Sudeste 19 Sudeste 0 -- -- 65
2021-02-18 16:00:00 15.7 6 Sudeste 12 Sudeste 0 -- -- 71
2021-02-18 15:00:00 14.3 8 Sudeste 14 Sudeste 0 -- -- 73
2021-02-18 14:00:00 11.9 7 Sur 19 Sudeste 0 -- -- 81
2021-02-18 13:00:00 10.1 11 Sudeste 17 Sudeste 0 -- -- 90
2021-02-18 12:00:00 8.3 9 Sudeste 14 Este 0 -- -- 97
2021-02-18 11:00:00 7.4 6 Sudeste 15 Sudeste 0 -- -- 98
2021-02-18 10:00:00 7 6 Sudeste 13 Sudeste 0 -- -- 97
2021-02-18 09:00:00 6.4 8 Sudeste 13 Sudeste 0 -- -- 97
2021-02-18 08:00:00 5.5 7 Sudeste 13 Sudeste 0 -- -- 97
2021-02-18 07:00:00 5.7 5 Sur 8 Sudeste 0 -- -- 96
2021-02-18 06:00:00 4.9 4 Sur 8 Sur 0 -- -- 96
2021-02-18 05:00:00 4 5 Oeste 9 Sudoeste 0 -- -- 95
2021-02-18 04:00:00 4.5 6 Sur 10 Sudoeste 0 -- -- 94
2021-02-18 03:00:00 5.4 8 Sur 9 Sur 0 -- -- 93
2021-02-18 02:00:00 5.7 7 Sudeste 10 Sudeste 0 -- -- 93
2021-02-18 01:00:00 6.3 2 Sur 8 Sudeste 0 -- -- 92
2021-02-18 00:00:00 6.8 3 Sur 7 Sur 0 -- -- 91
2021-02-17 23:00:00 8 0 Calma 7 Este 0 -- -- 87
2021-02-17 22:00:00 9.1 5 Este 8 Sudoeste 0 -- -- 88
2021-02-17 21:00:00 9.9 5 Sur 13 Sudoeste 0 -- -- 82
2021-02-17 20:00:00 12.1 3 Sudeste 8 Este 0 -- -- 77
2021-02-17 19:00:00 14.8 0 Calma 4 Este 0 -- -- 70
2021-02-17 18:00:00 17.2 3 Este 8 Este 0 -- -- 63
2021-02-17 17:00:00 17.5 5 Este 8 Sudeste 0 -- -- 61
2021-02-17 16:00:00 16.7 2 Sur 6 Norte 0 -- -- 65
2021-02-17 15:00:00 16.4 3 Este 6 Noroeste 0 -- -- 66
2021-02-17 14:00:00 14.4 2 Oeste 6 Nordeste 0 -- -- 70
2021-02-17 13:00:00 12.7 2 Sur 7 Este 0 -- -- 79
2021-02-17 12:00:00 11.2 2 Sudoeste 7 Sur 0 -- -- 86
2021-02-17 11:00:00 9.4 2 Oeste 4 Noroeste 0 -- -- 92
2021-02-17 10:00:00 7.7 0 Calma 4 Sudoeste 0 -- -- 96
2021-02-17 09:00:00 6.1 2 Oeste 6 Oeste 0 -- -- 95
2021-02-17 08:00:00 6 0 Calma 3 Sudeste 0 -- -- 95
2021-02-17 07:00:00 6.2 0 Calma 5 Noroeste 0 -- -- 95
2021-02-17 06:00:00 6.1 0 Calma 6 Oeste 0 -- -- 94
2021-02-17 05:00:00 6.1 4 Sudoeste 7 Sudoeste 0 -- -- 93
2021-02-17 04:00:00 6.6 0 Calma 4 Oeste 0 -- -- 93
2021-02-17 03:00:00 7.5 0 Calma 7 Sudeste 0 -- -- 92
2021-02-17 02:00:00 8.1 5 Sudeste 7 Este 0 -- -- 92
2021-02-17 01:00:00 8.4 2 Sudeste 8 Sudoeste 0 -- -- 90
2021-02-17 00:00:00 8.8 4 Sudoeste 6 Sudoeste 0 -- -- 89
2021-02-16 23:00:00 9.4 0 Calma 6 Noroeste 0 -- -- 87
2021-02-16 22:00:00 10.2 5 Este 6 Este 0 -- -- 84
2021-02-16 21:00:00 10.7 3 Sudoeste 10 Sur 0 -- -- 81
2021-02-16 20:00:00 11.3 3 Oeste 5 Sudeste 0 -- -- 78
2021-02-16 19:00:00 12.5 5 Sudeste 10 Sur 0 -- -- 74
2021-02-16 18:00:00 14.2 5 Sudeste 10 Sur 0 -- -- 69
2021-02-16 17:00:00 16 6 Sudeste 14 Sudeste 0 -- -- 63
2021-02-16 16:00:00 16.4 5 Sudeste 14 Nordeste 0 -- -- 63
2021-02-16 15:00:00 15.1 5 Sudeste 15 Sudeste 0 -- -- 68
2021-02-16 14:00:00 13.4 8 Sudeste 16 Sudeste 0 -- -- 73
2021-02-16 13:00:00 11.6 10 Sudeste 20 Sudeste 0 -- -- 79
2021-02-16 12:00:00 10.2 10 Sur 15 Sur 0 -- -- 85
2021-02-16 11:00:00 8.8 6 Sur 13 Sudoeste 0 -- -- 88
2021-02-16 10:00:00 8.1 6 Sur 12 Sur 0 -- -- 89
2021-02-16 09:00:00 8 7 Este 12 Este 0 -- -- 91
2021-02-16 08:00:00 7.8 4 Este 14 Sudeste 0 -- -- 93
2021-02-16 07:00:00 8.1 8 Sudeste 13 Sudeste 0 -- -- 92
2021-02-16 06:00:00 8.5 7 Este 11 Este 0 -- -- 92
2021-02-16 05:00:00 8.7 7 Este 14 Este 0 -- -- 91
2021-02-16 04:00:00 8.6 7 Sudeste 10 Sudeste 0 -- -- 91
2021-02-16 03:00:00 8.7 3 Sudeste 8 Sur 0 -- -- 92
2021-02-16 02:00:00 8.2 0 Calma 5 Sudeste 0 -- -- 92
2021-02-16 01:00:00 8 4 Este 8 Sudoeste 0 -- -- 94
2021-02-16 00:00:00 6.7 6 Sudoeste 9 Sudoeste 0 -- -- 92
2021-02-15 23:00:00 7.1 3 Sudoeste 6 Oeste 0 -- -- 89
2021-02-15 22:00:00 8.6 2 Sudeste 17 Este 0 -- -- 86
2021-02-15 21:00:00 9.4 10 Este 21 Este 0 -- -- 85
2021-02-15 20:00:00 10 11 Este 20 Este 0 -- -- 82
2021-02-15 19:00:00 11.3 9 Este 22 Este 0 -- -- 78
2021-02-15 18:00:00 13 14 Este 24 Este 0 -- -- 72
2021-02-15 17:00:00 14.3 14 Este 23 Este 0 -- -- 67
2021-02-15 16:00:00 15 10 Sudeste 18 Este 0 -- -- 65
2021-02-15 15:00:00 14.3 9 Este 15 Este 0 -- -- 66
2021-02-15 14:00:00 13.4 5 Nordeste 13 Este 0 -- -- 69
2021-02-15 13:00:00 11.2 5 Sudeste 15 Sudeste 0 -- -- 77
2021-02-15 12:00:00 9.8 8 Sudeste 12 Sudeste 0 -- -- 82
2021-02-15 11:00:00 8.9 6 Sudeste 10 Sudeste 0 -- -- 85
2021-02-15 10:00:00 7.8 2 Noroeste 4 Noroeste 0 -- -- 88
2021-02-15 09:00:00 7.1 3 Noroeste 6 Noroeste 0 -- -- 90
2021-02-15 08:00:00 6.9 2 Noroeste 4 Sur 0 -- -- 90
2021-02-15 07:00:00 6.8 0 Calma 3 Este 0 -- -- 89
2021-02-15 06:00:00 6.7 4 Este 9 Este 0 -- -- 89
2021-02-15 05:00:00 6.8 3 Este 8 Este 0 -- -- 89
2021-02-15 04:00:00 6.5 3 Este 6 Sudeste 0 -- -- 89
2021-02-15 03:00:00 6.9 3 Este 12 Sudeste 0 -- -- 87
2021-02-15 02:00:00 7.3 4 Sudeste 16 Sudeste 0 -- -- 86
2021-02-15 01:00:00 7.3 3 Este 18 Este 0 -- -- 86
2021-02-15 00:00:00 7.5 8 Este 20 Este 0 -- -- 85
2021-02-14 23:00:00 7.7 10 Este 19 Este 0 -- -- 84
2021-02-14 22:00:00 8.1 10 Este 24 Este 0 -- -- 84
2021-02-14 21:00:00 8.2 10 Este 19 Este 0 -- -- 84
2021-02-14 20:00:00 8.9 5 Este 26 Nordeste 0 -- -- 80
2021-02-14 19:00:00 10 13 Este 36 Este 0 -- -- 76
2021-02-14 18:00:00 11.7 18 Este 41 Este 0 -- -- 72
2021-02-14 17:00:00 12.8 20 Este 38 Este 0 -- -- 69
2021-02-14 16:00:00 14.3 20 Este 37 Este 0 -- -- 66
2021-02-14 15:00:00 14.5 23 Este 36 Este 0 -- -- 65
2021-02-14 14:00:00 14.4 15 Este 28 Este 0 -- -- 67
2021-02-14 13:00:00 14.2 8 Este 14 Este 0 -- -- 66
2021-02-14 12:00:00 12.2 4 Sudeste 12 Este 0 -- -- 67
2021-02-14 11:00:00 8.6 7 Sudeste 12 Este 0 -- -- 79
2021-02-14 10:00:00 5.5 2 Sudoeste 4 Sudoeste 0 -- -- 91
2021-02-14 09:00:00 2.6 0 Calma 6 Sudoeste 0 -- -- 95
2021-02-14 08:00:00 1 4 Sudoeste 6 Sudoeste 0 -- -- 93
2021-02-14 07:00:00 1.1 4 Sudoeste 8 Sudoeste 0 -- -- 92
2021-02-14 06:00:00 1.8 2 Sudeste 7 Este 0 -- -- 92
2021-02-14 05:00:00 2.7 3 Sudeste 5 Sudeste 0 -- -- 90
2021-02-14 04:00:00 3.1 4 Sur 8 Este 0 -- -- 88
2021-02-14 03:00:00 4.4 3 Sudeste 5 Nordeste 0 -- -- 85
2021-02-14 02:00:00 6 3 Este 7 Este 0 -- -- 81
2021-02-14 01:00:00 7.7 3 Noroeste 19 Sudoeste 0 -- -- 76
2021-02-14 00:00:00 8.6 14 Oeste 22 Oeste 0 -- -- 72
2021-02-13 23:00:00 10 17 Oeste 23 Oeste 0 -- -- 68
2021-02-13 22:00:00 11.5 17 Oeste 28 Oeste 0 -- -- 64
2021-02-13 21:00:00 12 19 Oeste 31 Oeste 0 -- -- 65
2021-02-13 20:00:00 12.8 17 Oeste 29 Oeste 0 -- -- 62
2021-02-13 19:00:00 13.1 16 Oeste 35 Oeste 0 -- -- 59
2021-02-13 18:00:00 13.3 15 Oeste 30 Sudoeste 0 -- -- 61
2021-02-13 17:00:00 13.9 18 Oeste 35 Oeste 0 -- -- 59
2021-02-13 16:00:00 14.7 23 Noroeste 38 Noroeste 0 -- -- 55
2021-02-13 15:00:00 15.9 21 Noroeste 39 Noroeste 0 -- -- 50
2021-02-13 14:00:00 17 23 Oeste 39 Oeste 0 -- -- 50
2021-02-13 13:00:00 16.1 23 Oeste 36 Oeste 0 -- -- 51
2021-02-13 08:00:00 -- -- -- -- -- -- -- -- --
2021-02-13 07:00:00 10.3 20 Oeste 36 Oeste 0 -- -- 69
2021-02-13 06:00:00 10.5 17 Oeste 43 Oeste 0 -- -- 69
2021-02-13 05:00:00 10.9 30 Oeste 48 Oeste 0 -- -- 68
2021-02-13 04:00:00 11 27 Noroeste 54 Noroeste 0 -- -- 69
2021-02-13 03:00:00 11.5 33 Oeste 57 Oeste 0 -- -- 68
2021-02-13 02:00:00 11.6 31 Oeste 67 Oeste 0 -- -- 69
2021-02-13 01:00:00 12 33 Oeste 69 Oeste 0 -- -- 68
2021-02-13 00:00:00 12.2 34 Oeste 60 Oeste 0 -- -- 68
2021-02-12 23:00:00 12.5 36 Noroeste 59 Oeste 0 -- -- 67
2021-02-12 22:00:00 12.6 30 Oeste 53 Oeste 0 -- -- 68
2021-02-12 21:00:00 12.7 26 Oeste 50 Oeste 0 -- -- 70
2021-02-12 20:00:00 12.9 29 Oeste 48 Oeste 0 -- -- 74
2021-02-12 19:00:00 13.5 31 Oeste 48 Oeste 0 -- -- 70
2021-02-12 18:00:00 14.3 30 Oeste 56 Oeste 0 -- -- 69
2021-02-12 17:00:00 14.3 31 Oeste 48 Oeste 0 -- -- 69
2021-02-12 16:00:00 13.7 26 Oeste 52 Oeste 0.2 -- -- 74
2021-02-12 15:00:00 13.6 17 Oeste 29 Oeste 0 -- -- 78
2021-02-12 14:00:00 12.2 10 Noroeste 21 Oeste 0 -- -- 94
2021-02-12 13:00:00 10.3 3 Noroeste 9 Nordeste 0.8 -- -- 95
2021-02-12 12:00:00 9.8 5 Noroeste 8 Noroeste 0.6 -- -- 95
2021-02-12 11:00:00 9 3 Este 7 Sudeste 0.4 -- -- 96
2021-02-12 10:00:00 7.6 4 Sudeste 12 Noroeste 1.2 -- -- 96
2021-02-12 09:00:00 7.4 4 Oeste 9 Sudoeste 0 -- -- 95
2021-02-12 08:00:00 6.8 5 Sur 8 Sur 0 -- -- 94
2021-02-12 07:00:00 7.1 2 Este 10 Oeste 0 -- -- 93
2021-02-12 06:00:00 7 4 Sur 7 Sur 0 -- -- 93
2021-02-12 05:00:00 7 3 Sudoeste 7 Noroeste 0 -- -- 92
2021-02-12 04:00:00 7.6 5 Oeste 8 Oeste 0 -- -- 92
2021-02-12 03:00:00 7.7 0 Calma 8 Este 0 -- -- 91
2021-02-12 02:00:00 7.9 2 Nordeste 8 Este 0 -- -- 90
2021-02-12 01:00:00 8.4 0 Calma 5 Norte 0 -- -- 88
2021-02-12 00:00:00 9.2 3 Nordeste 8 Sudoeste 0 -- -- 86
2021-02-11 23:00:00 10.2 4 Sudoeste 9 Norte 0 -- -- 82
2021-02-11 22:00:00 11.7 2 Sudeste 6 Este 0 -- -- 80
2021-02-11 21:00:00 13.5 4 Sudeste 11 Sudoeste 0 -- -- 73
2021-02-11 20:00:00 14.8 5 Oeste 8 Oeste 0 -- -- 69
2021-02-11 19:00:00 16.3 7 Noroeste 24 Oeste 0 -- -- 63
2021-02-11 18:00:00 17.9 9 Oeste 21 Oeste 0 -- -- 59
2021-02-11 17:00:00 18.7 3 Nordeste 11 Noroeste 0 -- -- 58
2021-02-11 16:00:00 18.9 6 Norte 12 Nordeste 0 -- -- 55
2021-02-11 15:00:00 17.3 4 Norte 10 Norte 0 -- -- 59
2021-02-11 14:00:00 15.9 3 Sur 9 Noroeste 0 -- -- 57
2021-02-11 13:00:00 14.1 3 Noroeste 11 Norte 0 -- -- 60
2021-02-11 12:00:00 11 3 Norte 6 Norte 0 -- -- 69
2021-02-11 11:00:00 7.3 3 Sur 6 Norte 0 -- -- 81
2021-02-11 10:00:00 4.4 0 Calma 6 Noroeste 0 -- -- 92
2021-02-11 09:00:00 1.5 3 Sudoeste 9 Sur 0 -- -- 96
2021-02-11 08:00:00 0.6 0 Calma 8 Sudoeste 0 -- -- 94
2021-02-11 07:00:00 0.9 0 Calma 9 Sudoeste 0 -- -- 94
2021-02-11 06:00:00 0.7 6 Sudoeste 10 Sudoeste 0 -- -- 94
2021-02-11 05:00:00 0.7 0 Calma 7 Oeste 0 -- -- 92
2021-02-11 04:00:00 1 4 Sur 8 Sudoeste 0 -- -- 91
2021-02-11 03:00:00 2.2 3 Sudoeste 6 Sudoeste 0 -- -- 90
2021-02-11 02:00:00 3.3 3 Sudoeste 5 Noroeste 0 -- -- 88
2021-02-11 01:00:00 4.7 5 Este 10 Sudeste 0 -- -- 84
2021-02-11 00:00:00 4.7 4 Sudeste 16 Sudoeste 0 -- -- 83
2021-02-10 23:00:00 5.3 8 Sudoeste 14 Sudoeste 0 -- -- 82
2021-02-10 22:00:00 6.4 7 Sudoeste 18 Sudoeste 0 -- -- 77
2021-02-10 21:00:00 7.7 3 Oeste 16 Oeste 0 -- -- 73
2021-02-10 20:00:00 10.2 9 Oeste 18 Noroeste 0 -- -- 63
2021-02-10 19:00:00 12.1 13 Noroeste 21 Oeste 0 -- -- 58
2021-02-10 18:00:00 13.9 16 Oeste 36 Oeste 0 -- -- 50
2021-02-10 17:00:00 15 22 Oeste 39 Oeste 0 -- -- 46
2021-02-10 16:00:00 14.7 24 Noroeste 39 Noroeste 0 -- -- 48
2021-02-10 15:00:00 14.3 22 Noroeste 44 Oeste 0 -- -- 52
2021-02-10 14:00:00 13.5 30 Noroeste 47 Noroeste 0 -- -- 52
2021-02-10 13:00:00 12.6 26 Oeste 52 Noroeste 0.2 -- -- 59
2021-02-10 12:00:00 11.4 22 Noroeste 40 Oeste 0 -- -- 67
2021-02-10 11:00:00 9.8 18 Noroeste 36 Noroeste 0 -- -- 72
2021-02-10 10:00:00 9 10 Noroeste 18 Noroeste 0 -- -- 78
2021-02-10 09:00:00 6.8 8 Oeste 19 Sur 0 -- -- 85
2021-02-10 08:00:00 7 10 Sur 17 Sudoeste 0 -- -- 91
2021-02-10 07:00:00 6.9 6 Sudeste 9 Sudeste 1.4 -- -- 94
2021-02-10 06:00:00 7 2 Nordeste 13 Sudeste 0.2 -- -- 93
2021-02-10 05:00:00 7 6 Este 10 Sudeste 0 -- -- 92
2021-02-10 04:00:00 7.1 4 Nordeste 16 Sur 1.4 -- -- 91
2021-02-10 03:00:00 6.9 5 Sur 8 Sudeste 0 -- -- 88
2021-02-10 02:00:00 7.3 5 Sur 10 Sudoeste 0 -- -- 86
2021-02-10 01:00:00 7.6 4 Este 17 Sur 0 -- -- 83
2021-02-10 00:00:00 7.8 12 Sur 21 Oeste 0 -- -- 81
2021-02-09 23:00:00 8.3 6 Oeste 11 Oeste 0.2 -- -- 81
2021-02-09 22:00:00 7.9 0 Calma 9 Norte 0 -- -- 80
2021-02-09 21:00:00 8.3 5 Sur 19 Oeste 0 -- -- 77
2021-02-09 20:00:00 10 9 Oeste 22 Sudoeste 0 -- -- 70
2021-02-09 19:00:00 11.2 10 Oeste 23 Oeste 0 -- -- 69
2021-02-09 18:00:00 11.5 10 Norte 37 Oeste 0 -- -- 78
2021-02-09 17:00:00 10.9 12 Este 22 Este 0 -- -- 82
2021-02-09 16:00:00 11.7 4 Este 19 Este 0.2 -- -- 77
2021-02-09 15:00:00 12.7 10 Este 22 Este 0 -- -- 67
2021-02-09 14:00:00 11.7 9 Este 19 Este 0 -- -- 70
2021-02-09 13:00:00 11.1 4 Este 15 Sudeste 0 -- -- 74
2021-02-09 12:00:00 10.2 10 Sudeste 17 Este 0 -- -- 72
2021-02-09 11:00:00 9.1 10 Sudeste 16 Sudeste 0 -- -- 74
2021-02-09 10:00:00 8.8 5 Sudeste 12 Este 0 -- -- 74
2021-02-09 09:00:00 8 5 Sur 15 Sur 0 -- -- 76
2021-02-09 08:00:00 6.2 6 Sudoeste 12 Sudoeste 0 -- -- 88
2021-02-09 07:00:00 6.2 4 Sudeste 12 Este 0 -- -- 85
2021-02-09 06:00:00 5.2 6 Sudeste 10 Sudeste 0 -- -- 87
2021-02-09 05:00:00 5.3 2 Noroeste 8 Oeste 0 -- -- 84
2021-02-09 04:00:00 6 5 Este 8 Este 0 -- -- 82
2021-02-09 03:00:00 7.3 2 Oeste 8 Sur 0 -- -- 76
2021-02-09 02:00:00 9 0 Calma 8 Oeste 0 -- -- 71
2021-02-09 01:00:00 9.4 5 Noroeste 14 Oeste 0 -- -- 68
2021-02-09 00:00:00 9.5 4 Noroeste 23 Oeste 0 -- -- 67
2021-02-08 23:00:00 10.5 18 Oeste 33 Oeste 0 -- -- 63
2021-02-08 22:00:00 11.1 16 Oeste 28 Oeste 0 -- -- 61
2021-02-08 21:00:00 11.3 14 Oeste 24 Oeste 0 -- -- 60
2021-02-08 20:00:00 11.6 14 Oeste 31 Oeste 0 -- -- 58
2021-02-08 19:00:00 12.6 23 Oeste 38 Oeste 0 -- -- 53
2021-02-08 18:00:00 13.2 20 Oeste 41 Oeste 0 -- -- 53
2021-02-08 17:00:00 14.3 18 Oeste 51 Oeste 0 -- -- 51
2021-02-08 16:00:00 14.6 32 Oeste 63 Oeste 0 -- -- 48
2021-02-08 15:00:00 15.7 36 Oeste 57 Oeste 0 -- -- 46
2021-02-08 14:00:00 15.1 36 Oeste 57 Oeste 0 -- -- 48
2021-02-08 13:00:00 13 30 Oeste 51 Oeste 0.2 -- -- 61
2021-02-08 12:00:00 9.4 5 Este 10 Este 0.6 -- -- 92
2021-02-08 11:00:00 7.9 10 Sudoeste 19 Sudeste 0 -- -- 91
2021-02-08 10:00:00 7.1 12 Sudeste 19 Sudeste 0.4 -- -- 90
2021-02-08 09:00:00 6.4 9 Este 14 Sudeste 0.4 -- -- 90
2021-02-08 08:00:00 6.2 9 Sudeste 14 Sudeste 0 -- -- 87
2021-02-08 07:00:00 5.9 7 Sudeste 13 Sudeste 0 -- -- 86
2021-02-08 06:00:00 5.6 6 Sudeste 10 Sudeste 0 -- -- 85
2021-02-08 05:00:00 5.3 4 Noroeste 9 Norte 0 -- -- 87
2021-02-08 04:00:00 4.8 4 Sur 8 Sur 0 -- -- 86
2021-02-08 03:00:00 5.8 0 Calma 10 Este 0 -- -- 82
2021-02-08 02:00:00 6.1 3 Sudeste 10 Este 0 -- -- 79
2021-02-08 01:00:00 6 4 Sur 6 Sur 0 -- -- 80
2021-02-08 00:00:00 6.6 0 Calma 8 Noroeste 0 -- -- 74
2021-02-07 23:00:00 7.1 4 Sur 6 Sur 0 -- -- 73
2021-02-07 22:00:00 7.3 2 Nordeste 6 Sudoeste 0 -- -- 71
2021-02-07 21:00:00 8 5 Sudoeste 15 Oeste 0 -- -- 66
2021-02-07 20:00:00 9.5 10 Oeste 15 Oeste 0 -- -- 58
2021-02-07 19:00:00 10.1 10 Oeste 18 Oeste 0 -- -- 54
2021-02-07 18:00:00 11 8 Oeste 21 Noroeste 0 -- -- 52
2021-02-07 17:00:00 12.1 15 Noroeste 33 Noroeste 0 -- -- 49
2021-02-07 16:00:00 11.7 23 Noroeste 46 Noroeste 0 -- -- 50
2021-02-07 15:00:00 11.7 25 Noroeste 52 Oeste 0 -- -- 49
2021-02-07 14:00:00 11.5 34 Oeste 66 Oeste 0 -- -- 49
2021-02-07 13:00:00 10.9 37 Oeste 64 Oeste 0 -- -- 50
2021-02-07 12:00:00 10.6 37 Oeste 56 Oeste 0 -- -- 51
2021-02-07 11:00:00 9.7 36 Oeste 59 Oeste 0 -- -- 53
2021-02-07 10:00:00 8.5 30 Oeste 57 Oeste 0 -- -- 57
2021-02-07 09:00:00 6.9 25 Oeste 50 Oeste 0 -- -- 62
2021-02-07 08:00:00 6.3 23 Oeste 46 Oeste 0 -- -- 65
2021-02-07 07:00:00 6.4 28 Oeste 54 Oeste 0 -- -- 65
2021-02-07 06:00:00 6.9 33 Oeste 61 Oeste 0 -- -- 65
2021-02-07 05:00:00 7.4 31 Oeste 53 Oeste 0 -- -- 67
2021-02-07 04:00:00 7.8 32 Oeste 53 Oeste 0 -- -- 68
2021-02-07 03:00:00 8 33 Oeste 58 Oeste 0 -- -- 71
2021-02-07 02:00:00 8.2 34 Oeste 57 Noroeste 0 -- -- 72
2021-02-07 01:00:00 8.5 36 Oeste 54 Oeste 0 -- -- 73
2021-02-07 00:00:00 8.9 32 Oeste 57 Oeste 0 -- -- 73
2021-02-06 23:00:00 9 28 Oeste 50 Oeste 0 -- -- 72
2021-02-06 22:00:00 9 25 Oeste 40 Oeste 0 -- -- 75
2021-02-06 21:00:00 9.4 22 Oeste 46 Oeste 0 -- -- 76
2021-02-06 20:00:00 9.8 17 Oeste 37 Oeste 0 -- -- 76
2021-02-06 19:00:00 10.5 26 Noroeste 40 Noroeste 0 -- -- 75
2021-02-06 18:00:00 11.1 22 Noroeste 47 Noroeste 0.2 -- -- 84
2021-02-06 17:00:00 12.3 34 Noroeste 55 Noroeste 0 -- -- 73
2021-02-06 16:00:00 17 4 Noroeste 14 Noroeste 0 -- -- 54
2021-02-06 15:00:00 18 6 Nordeste 12 Nordeste 0 -- -- 52
2021-02-06 14:00:00 17.1 4 Nordeste 11 Este 0 -- -- 56
2021-02-06 13:00:00 14.5 5 Sudeste 9 Este 0 -- -- 75
2021-02-06 12:00:00 13.2 4 Este 9 Este 0 -- -- 80
2021-02-06 11:00:00 11.9 3 Sudeste 9 Este 0 -- -- 87
2021-02-06 10:00:00 9.3 5 Este 9 Sudeste 0 -- -- 95
2021-02-06 09:00:00 8.5 3 Nordeste 14 Oeste 0 -- -- 94
2021-02-06 08:00:00 8.5 12 Oeste 17 Oeste 0.2 -- -- 94
2021-02-06 07:00:00 8.8 6 Sur 9 Sudeste 0 -- -- 93
2021-02-06 06:00:00 8.8 2 Sur 9 Nordeste 0 -- -- 92
2021-02-06 05:00:00 9.1 4 Sudoeste 14 Sur 0 -- -- 91
2021-02-06 04:00:00 9.2 3 Noroeste 10 Oeste 0 -- -- 90
2021-02-06 03:00:00 9.5 5 Norte 15 Sudoeste 0 -- -- 89
2021-02-06 02:00:00 9.7 10 Sudoeste 15 Sudoeste 0 -- -- 87
2021-02-06 01:00:00 10 9 Oeste 20 Sur 0 -- -- 86
2021-02-06 00:00:00 10.6 6 Este 12 Este 0 -- -- 83
2021-02-05 23:00:00 10.5 9 Este 25 Este 0 -- -- 82
2021-02-05 22:00:00 11.2 10 Este 22 Sudeste 0 -- -- 80
2021-02-05 21:00:00 11.4 8 Este 27 Este 0 -- -- 80
2021-02-05 20:00:00 12.2 18 Este 33 Este 0 -- -- 78
2021-02-05 19:00:00 13.1 12 Sudeste 30 Este 0 -- -- 73
2021-02-05 18:00:00 14.4 14 Este 34 Este 0 -- -- 69
2021-02-05 17:00:00 15.4 17 Este 33 Este 0 -- -- 67
2021-02-05 16:00:00 16.7 17 Este 32 Este 0 -- -- 64
2021-02-05 15:00:00 17.1 19 Este 34 Este 0 -- -- 62
2021-02-05 14:00:00 17 16 Este 33 Este 0 -- -- 63
2021-02-05 13:00:00 15.6 11 Este 20 Este 0 -- -- 69
2021-02-05 12:00:00 13.1 4 Sur 13 Este 0 -- -- 83
2021-02-05 11:00:00 11.1 9 Este 20 Nordeste 0 -- -- 90
2021-02-05 10:00:00 9.4 6 Sudeste 10 Sudeste 0 -- -- 96
2021-02-05 09:00:00 8.4 4 Sudoeste 6 Sudoeste 0 -- -- 96
2021-02-05 08:00:00 7.8 2 Nordeste 5 Este 0 -- -- 95
2021-02-05 07:00:00 7.5 2 Nordeste 8 Sudeste 0 -- -- 95
2021-02-05 06:00:00 7.5 6 Este 9 Este 0 -- -- 95
2021-02-05 05:00:00 6.9 0 Calma 4 Este 0 -- -- 94
2021-02-05 04:00:00 7.2 3 Sudeste 7 Sudoeste 0 -- -- 93
2021-02-05 03:00:00 7.5 5 Sudoeste 7 Sudoeste 0 -- -- 93
2021-02-05 02:00:00 7.7 4 Sur 11 Sudeste 0 -- -- 90
2021-02-05 01:00:00 8.3 5 Este 12 Sudoeste 0 -- -- 92
2021-02-05 00:00:00 8.8 8 Sudoeste 12 Sudoeste 0 -- -- 86
2021-02-04 23:00:00 11 5 Sudeste 13 Este 0 -- -- 83
2021-02-04 22:00:00 11.5 4 Sudeste 10 Este 0 -- -- 81
2021-02-04 21:00:00 12.1 6 Sudeste 14 Este 0 -- -- 78
2021-02-04 20:00:00 13.2 5 Este 11 Este 0 -- -- 73
2021-02-04 19:00:00 14.5 5 Este 19 Este 0 -- -- 69
2021-02-04 18:00:00 16.5 10 Este 19 Este 0 -- -- 62
2021-02-04 17:00:00 17.6 13 Este 23 Este 0 -- -- 59
2021-02-04 16:00:00 18.3 10 Este 21 Sudeste 0 -- -- 59
2021-02-04 15:00:00 18.8 10 Sudeste 18 Sudeste 0 -- -- 58
2021-02-04 14:00:00 17.3 7 Sudeste 16 Sudeste 0 -- -- 63
2021-02-04 13:00:00 15.6 7 Este 13 Este 0 -- -- 68
2021-02-04 12:00:00 12.5 4 Sudeste 10 Sudeste 0 -- -- 78
2021-02-04 11:00:00 9.9 0 Calma 9 Este 0 -- -- 89
2021-02-04 10:00:00 9.3 3 Sur 9 Sudoeste 0 -- -- 93
2021-02-04 09:00:00 7.8 3 Sudoeste 4 Sudoeste 0 -- -- 92
2021-02-04 08:00:00 7.8 0 Calma 7 Sudoeste 0 -- -- 90
2021-02-04 07:00:00 8.1 3 Sudeste 8 Sudoeste 0 -- -- 90
2021-02-04 06:00:00 8.4 5 Sudoeste 9 Sudoeste 0 -- -- 89
2021-02-04 05:00:00 8.9 0 Calma 6 Sudoeste 0 -- -- 88
2021-02-04 04:00:00 9 3 Noroeste 6 Oeste 0 -- -- 88
2021-02-04 03:00:00 9.4 0 Calma 4 Sur 0 -- -- 85
2021-02-04 02:00:00 9.9 0 Calma 9 Sudoeste 0 -- -- 84
2021-02-04 01:00:00 10.2 2 Sur 9 Sudoeste 0 -- -- 83
2021-02-04 00:00:00 10.6 3 Sudeste 6 Sudeste 0 -- -- 80
2021-02-03 23:00:00 11.6 5 Sudeste 8 Nordeste 0 -- -- 76
2021-02-03 22:00:00 12.6 3 Este 13 Sudeste 0 -- -- 72
2021-02-03 21:00:00 14.3 11 Sudeste 17 Sudeste 0 -- -- 64
2021-02-03 20:00:00 13.8 9 Este 18 Este 0 -- -- 67
2021-02-03 19:00:00 15.6 9 Sudeste 15 Sudeste 0 -- -- 62
2021-02-03 18:00:00 17 6 Este 14 Sudeste 0 -- -- 60
2021-02-03 17:00:00 18 9 Este 14 Este 0 -- -- 54
2021-02-03 16:00:00 18.6 8 Noroeste 15 Oeste 0 -- -- 50
2021-02-03 15:00:00 19.4 9 Oeste 14 Oeste 0 -- -- 47
2021-02-03 14:00:00 19.8 4 Nordeste 15 Sudeste 0 -- -- 49
2021-02-03 13:00:00 18 7 Nordeste 12 Este 0 -- -- 53
2021-02-03 12:00:00 16 7 Este 12 Este 0 -- -- 57
2021-02-03 11:00:00 11.8 5 Este 10 Este 0 -- -- 76
2021-02-03 10:00:00 8.7 5 Este 10 Sudeste 0 -- -- 82
2021-02-03 09:00:00 5.6 3 Este 6 Este 0 -- -- 90
2021-02-03 08:00:00 6.3 2 Norte 13 Sudeste 0 -- -- 86
2021-02-03 07:00:00 6.1 5 Nordeste 17 Nordeste 0 -- -- 88
2021-02-03 06:00:00 6.9 6 Este 17 Este 0 -- -- 88
2021-02-03 05:00:00 6.9 5 Sudeste 13 Este 0 -- -- 83
2021-02-03 04:00:00 7.8 6 Sudeste 12 Sur 0 -- -- 82
2021-02-03 03:00:00 8.8 9 Sudeste 14 Sudeste 0 -- -- 77
2021-02-03 02:00:00 9.3 7 Sudeste 12 Oeste 0 -- -- 77
2021-02-03 01:00:00 11.9 11 Sudoeste 20 Sudoeste 0 -- -- 67
2021-02-03 00:00:00 10.2 9 Sur 19 Sudoeste 0 -- -- 75
2021-02-02 23:00:00 12.3 5 Oeste 12 Oeste 0 -- -- 66
2021-02-02 22:00:00 13.6 5 Noroeste 17 Oeste 0 -- -- 64
2021-02-02 21:00:00 13.9 8 Noroeste 22 Oeste 0 -- -- 65
2021-02-02 20:00:00 15.2 11 Oeste 23 Oeste 0 -- -- 60
2021-02-02 19:00:00 16.3 12 Oeste 17 Oeste 0 -- -- 57
2021-02-02 18:00:00 19.8 0 Calma 12 Oeste 0 -- -- 48
2021-02-02 17:00:00 20.7 10 Oeste 25 Oeste 0 -- -- 44
2021-02-02 16:00:00 20.6 18 Sudoeste 31 Oeste 0 -- -- 44
2021-02-02 15:00:00 20.6 19 Oeste 33 Sudoeste 0 -- -- 44
2021-02-02 14:00:00 20.5 19 Oeste 41 Oeste 0 -- -- 44
2021-02-02 13:00:00 19.5 22 Oeste 45 Oeste 0 -- -- 47
2021-02-02 12:00:00 15.6 9 Norte 21 Oeste 0 -- -- 67
2021-02-02 11:00:00 12.7 4 Nordeste 7 Este 0 -- -- 76
2021-02-02 10:00:00 9.4 2 Sudeste 9 Este 0 -- -- 86
2021-02-02 09:00:00 6.1 2 Sur 11 Este 0 -- -- 92
2021-02-02 08:00:00 6.6 5 Este 10 Sudeste 0 -- -- 88
2021-02-02 07:00:00 7.2 6 Este 9 Sudoeste 0 -- -- 87
2021-02-02 06:00:00 8.3 5 Sudoeste 8 Este 0 -- -- 85
2021-02-02 05:00:00 8.4 3 Sur 10 Oeste 0 -- -- 85
2021-02-02 04:00:00 7.8 3 Sur 9 Sudeste 0 -- -- 88
2021-02-02 03:00:00 7.3 5 Este 12 Este 0 -- -- 88
2021-02-02 02:00:00 8 3 Norte 16 Oeste 0 -- -- 85
2021-02-02 01:00:00 8.9 10 Sudoeste 17 Oeste 0 -- -- 81
2021-02-02 00:00:00 9.9 6 Sudoeste 13 Noroeste 0 -- -- 76
2021-02-01 23:00:00 10.2 6 Noroeste 12 Noroeste 0 -- -- 79
2021-02-01 22:00:00 11.9 11 Oeste 20 Oeste 0 -- -- 72
2021-02-01 21:00:00 10.3 8 Sudoeste 11 Sudoeste 0 -- -- 77
2021-02-01 20:00:00 12.3 8 Oeste 15 Oeste 0 -- -- 70
2021-02-01 19:00:00 15.1 11 Oeste 26 Noroeste 0 -- -- 62
2021-02-01 18:00:00 16.8 14 Noroeste 30 Noroeste 0 -- -- 55
2021-02-01 17:00:00 17.6 14 Noroeste 35 Noroeste 0 -- -- 50
2021-02-01 16:00:00 17.8 21 Noroeste 35 Noroeste 0 -- -- 48
2021-02-01 15:00:00 17.5 21 Noroeste 41 Oeste 0 -- -- 48
2021-02-01 14:00:00 17.7 24 Noroeste 39 Noroeste 0 -- -- 46
2021-02-01 13:00:00 16.9 24 Noroeste 43 Noroeste 0 -- -- 48
2021-02-01 12:00:00 16.3 23 Noroeste 40 Noroeste 0 -- -- 49
2021-02-01 11:00:00 16 26 Oeste 46 Oeste 0 -- -- 49
2021-02-01 10:00:00 14.6 26 Oeste 45 Oeste 0 -- -- 53
2021-02-01 09:00:00 12.4 19 Oeste 32 Oeste 0 -- -- 60
2021-02-01 08:00:00 11.8 18 Oeste 30 Oeste 0 -- -- 61
2021-02-01 07:00:00 12.6 20 Noroeste 41 Oeste 0 -- -- 58
2021-02-01 06:00:00 13.7 27 Oeste 42 Oeste 0 -- -- 55
2021-02-01 05:00:00 12.9 20 Oeste 34 Oeste 0 -- -- 62
2021-02-01 04:00:00 13.3 21 Noroeste 37 Noroeste 0 -- -- 62
2021-02-01 03:00:00 12.6 12 Noroeste 38 Oeste 0 -- -- 64
2021-02-01 02:00:00 15.6 23 Noroeste 60 Oeste 0 -- -- 54
2021-02-01 01:00:00 16.3 32 Oeste 62 Oeste 0 -- -- 51
2021-02-01 00:00:00 16.6 37 Oeste 60 Oeste 0 -- -- 51
2021-01-31 23:00:00 14.9 18 Oeste 35 Oeste 0 -- -- 60
2021-01-31 22:00:00 10.1 7 Sur 13 Sudoeste 0 -- -- 79
2021-01-31 21:00:00 10 4 Este 6 Oeste 0 -- -- 78
2021-01-31 20:00:00 11.6 5 Oeste 10 Oeste 0 -- -- 71
2021-01-31 19:00:00 13.2 7 Sudoeste 15 Oeste 0 -- -- 66
2021-01-31 18:00:00 14.9 13 Noroeste 23 Noroeste 0 -- -- 60
2021-01-31 17:00:00 16.1 15 Noroeste 51 Oeste 0 -- -- 56
2021-01-31 16:00:00 18.1 28 Oeste 49 Oeste 0 -- -- 52
2021-01-31 15:00:00 17.1 31 Oeste 44 Oeste 0 -- -- 53
2021-01-31 14:00:00 15.8 30 Oeste 48 Oeste 0 -- -- 54
2021-01-31 13:00:00 15.5 24 Oeste 44 Oeste 0 -- -- 50
2021-01-31 12:00:00 13.7 15 Noroeste 43 Oeste 0 -- -- 56
2021-01-31 11:00:00 13.6 27 Oeste 44 Oeste 0 -- -- 54
2021-01-31 10:00:00 11.8 20 Oeste 30 Oeste 0 -- -- 61
2021-01-31 09:00:00 8.9 12 Oeste 28 Oeste 0 -- -- 71
2021-01-31 08:00:00 8.1 17 Noroeste 26 Noroeste 0 -- -- 72
2021-01-31 07:00:00 7.8 3 Norte 20 Noroeste 0 -- -- 74
2021-01-31 06:00:00 8.8 13 Noroeste 22 Noroeste 0 -- -- 71
2021-01-31 05:00:00 9.3 10 Noroeste 35 Oeste 0 -- -- 70
2021-01-31 04:00:00 11.1 27 Oeste 47 Oeste 0 -- -- 61
2021-01-31 03:00:00 10.2 24 Oeste 41 Oeste 0 -- -- 65
2021-01-31 02:00:00 6 4 Norte 15 Oeste 0 -- -- 90
2021-01-31 01:00:00 6.6 4 Noroeste 9 Oeste 0 -- -- 88
2021-01-31 00:00:00 6 4 Sudeste 9 Sur 0 -- -- 88
2021-01-30 23:00:00 6.6 3 Sudoeste 5 Sur 0 -- -- 88
2021-01-30 22:00:00 7.8 3 Sur 6 Noroeste 0 -- -- 84
2021-01-30 21:00:00 8.6 2 Noroeste 7 Noroeste 0 -- -- 82
2021-01-30 20:00:00 9.1 6 Noroeste 31 Noroeste 0.4 -- -- 76
2021-01-30 19:00:00 11.3 28 Noroeste 68 Oeste 0 -- -- 69
2021-01-30 18:00:00 13.8 35 Oeste 66 Oeste 0 -- -- 47
2021-01-30 17:00:00 15.6 43 Oeste 70 Oeste 0 -- -- 43
2021-01-30 16:00:00 16.8 46 Oeste 77 Oeste 0 -- -- 36
2021-01-30 15:00:00 17.1 41 Oeste 72 Oeste 0 -- -- 37
2021-01-30 14:00:00 17 38 Oeste 73 Oeste 0 -- -- 39
2021-01-30 13:00:00 16.9 43 Oeste 65 Oeste 0 -- -- 43
2021-01-30 12:00:00 16.8 31 Oeste 53 Oeste 0 -- -- 47
2021-01-30 11:00:00 15.3 31 Oeste 52 Oeste 0 -- -- 55
2021-01-30 10:00:00 13.6 18 Oeste 30 Oeste 0 -- -- 64
2021-01-30 09:00:00 12.5 14 Sudoeste 28 Sudoeste 0 -- -- 79
2021-01-30 08:00:00 9.9 4 Nordeste 15 Sur 0 -- -- 87
2021-01-30 07:00:00 8.9 7 Sudeste 9 Sudeste 0 -- -- 92
2021-01-30 06:00:00 8.4 3 Sudeste 6 Nordeste 0 -- -- 92
2021-01-30 05:00:00 8 8 Noroeste 19 Noroeste 0 -- -- 92
2021-01-30 04:00:00 7.5 2 Sudoeste 11 Oeste 0 -- -- 90
2021-01-30 03:00:00 8.3 5 Noroeste 9 Este 0 -- -- 87
2021-01-30 02:00:00 9.5 9 Este 14 Este 0 -- -- 87
2021-01-30 01:00:00 9.2 5 Sudeste 11 Sudeste 0 -- -- 86
2021-01-30 00:00:00 10.3 3 Nordeste 8 Sudoeste 0 -- -- 81